sensor_id;sensor_type;location;lat;lon;timestamp;temperature;humidity
9730;DHT22;4904;49.152;11.004;2023-05-16T00:02:06;11.80;99.90
9730;DHT22;4904;49.152;11.004;2023-05-16T00:04:35;11.80;99.90
9730;DHT22;4904;49.152;11.004;2023-05-16T00:07:02;11.70;99.90
9730;DHT22;4904;49.152;11.004;2023-05-16T00:09:29;11.70;99.90
9730;DHT22;4904;49.152;11.004;2023-05-16T00:11:57;11.20;99.90
9730;DHT22;4904;49.152;11.004;2023-05-16T00:14:24;11.20;99.90
9730;DHT22;4904;49.152;11.004;2023-05-16T00:16:51;11.30;99.90
9730;DHT22;4904;49.152;11.004;2023-05-16T00:19:18;11.40;99.90
9730;DHT22;4904;49.152;11.004;2023-05-16T00:21:45;11.40;99.90
9730;DHT22;4904;49.152;11.004;2023-05-16T00:24:12;11.20;99.90
9730;DHT22;4904;49.152;11.004;2023-05-16T00:26:39;11.20;99.90
9730;DHT22;4904;49.152;11.004;2023-05-16T00:29:07;11.00;99.90
9730;DHT22;4904;49.152;11.004;2023-05-16T00:31:34;11.10;99.90
9730;DHT22;4904;49.152;11.004;2023-05-16T00:34:01;11.20;99.90
9730;DHT22;4904;49.152;11.004;2023-05-16T00:36:28;10.90;99.90
9730;DHT22;4904;49.152;11.004;2023-05-16T00:38:56;10.80;99.90
9730;DHT22;4904;49.152;11.004;2023-05-16T00:41:23;11.00;99.90
9730;DHT22;4904;49.152;11.004;2023-05-16T00:43:49;11.00;99.90
9730;DHT22;4904;49.152;11.004;2023-05-16T00:46:18;11.10;99.90
9730;DHT22;4904;49.152;11.004;2023-05-16T00:48:44;11.00;99.90
9730;DHT22;4904;49.152;11.004;2023-05-16T00:51:11;10.80;99.90
9730;DHT22;4904;49.152;11.004;2023-05-16T00:53:38;10.70;99.90
9730;DHT22;4904;49.152;11.004;2023-05-16T00:56:05;10.60;99.90
9730;DHT22;4904;49.152;11.004;2023-05-16T00:58:32;10.60;99.90
9730;DHT22;4904;49.152;11.004;2023-05-16T01:00:59;10.30;99.90
9730;DHT22;4904;49.152;11.004;2023-05-16T01:03:29;10.10;99.90
9730;DHT22;4904;49.152;11.004;2023-05-16T01:05:57;10.10;99.90
9730;DHT22;4904;49.152;11.004;2023-05-16T01:08:24;10.30;99.90
9730;DHT22;4904;49.152;11.004;2023-05-16T01:10:58;10.40;99.90
9730;DHT22;4904;49.152;11.004;2023-05-16T01:13:30;10.30;99.90
9730;DHT22;4904;49.152;11.004;2023-05-16T01:16:04;10.00;99.90
9730;DHT22;4904;49.152;11.004;2023-05-16T01:18:41;9.70;99.90
9730;DHT22;4904;49.152;11.004;2023-05-16T01:21:12;9.90;99.90
9730;DHT22;4904;49.152;11.004;2023-05-16T01:23:50;10.00;99.90
9730;DHT22;4904;49.152;11.004;2023-05-16T01:26:20;10.00;99.90
9730;DHT22;4904;49.152;11.004;2023-05-16T01:28:49;10.00;99.90
9730;DHT22;4904;49.152;11.004;2023-05-16T01:31:16;10.10;99.90
9730;DHT22;4904;49.152;11.004;2023-05-16T01:33:44;10.10;99.90
9730;DHT22;4904;49.152;11.004;2023-05-16T01:36:20;10.10;99.90
9730;DHT22;4904;49.152;11.004;2023-05-16T01:38:58;10.10;99.90
9730;DHT22;4904;49.152;11.004;2023-05-16T01:41:33;10.20;99.90
9730;DHT22;4904;49.152;11.004;2023-05-16T01:44:13;10.30;99.90
9730;DHT22;4904;49.152;11.004;2023-05-16T01:46:45;10.00;99.90
9730;DHT22;4904;49.152;11.004;2023-05-16T01:49:16;10.10;99.90
9730;DHT22;4904;49.152;11.004;2023-05-16T01:51:50;10.20;99.90
9730;DHT22;4904;49.152;11.004;2023-05-16T01:54:18;10.20;99.90
9730;DHT22;4904;49.152;11.004;2023-05-16T01:56:51;10.30;99.90
9730;DHT22;4904;49.152;11.004;2023-05-16T01:59:20;10.30;99.90
9730;DHT22;4904;49.152;11.004;2023-05-16T02:01:47;10.30;99.90
9730;DHT22;4904;49.152;11.004;2023-05-16T02:04:14;10.30;99.90
9730;DHT22;4904;49.152;11.004;2023-05-16T02:06:41;10.20;99.90
9730;DHT22;4904;49.152;11.004;2023-05-16T02:09:08;10.10;99.90
9730;DHT22;4904;49.152;11.004;2023-05-16T02:11:35;10.10;99.90
9730;DHT22;4904;49.152;11.004;2023-05-16T02:14:03;10.10;99.90
9730;DHT22;4904;49.152;11.004;2023-05-16T02:16:30;10.10;99.90
9730;DHT22;4904;49.152;11.004;2023-05-16T02:18:57;9.90;99.90
9730;DHT22;4904;49.152;11.004;2023-05-16T02:21:24;9.80;99.90
9730;DHT22;4904;49.152;11.004;2023-05-16T02:23:51;9.80;99.90
9730;DHT22;4904;49.152;11.004;2023-05-16T02:26:18;9.70;99.90
9730;DHT22;4904;49.152;11.004;2023-05-16T02:28:45;9.60;99.90
9730;DHT22;4904;49.152;11.004;2023-05-16T02:31:25;9.60;99.90
9730;DHT22;4904;49.152;11.004;2023-05-16T02:33:51;9.60;99.90
9730;DHT22;4904;49.152;11.004;2023-05-16T02:36:18;9.60;99.90
9730;DHT22;4904;49.152;11.004;2023-05-16T02:38:46;9.40;99.90
9730;DHT22;4904;49.152;11.004;2023-05-16T02:41:12;9.40;99.90
9730;DHT22;4904;49.152;11.004;2023-05-16T02:43:39;9.60;99.90
9730;DHT22;4904;49.152;11.004;2023-05-16T02:46:21;9.60;99.90
9730;DHT22;4904;49.152;11.004;2023-05-16T02:48:48;9.70;99.90
9730;DHT22;4904;49.152;11.004;2023-05-16T02:51:15;9.70;99.90
9730;DHT22;4904;49.152;11.004;2023-05-16T02:53:42;9.70;99.90
9730;DHT22;4904;49.152;11.004;2023-05-16T02:56:09;9.60;99.90
9730;DHT22;4904;49.152;11.004;2023-05-16T02:58:36;9.60;99.90
9730;DHT22;4904;49.152;11.004;2023-05-16T03:01:03;9.60;99.90
9730;DHT22;4904;49.152;11.004;2023-05-16T03:03:31;9.70;99.90
9730;DHT22;4904;49.152;11.004;2023-05-16T03:05:59;9.80;99.90
9730;DHT22;4904;49.152;11.004;2023-05-16T03:08:26;9.90;99.90
9730;DHT22;4904;49.152;11.004;2023-05-16T03:10:53;10.00;99.90
9730;DHT22;4904;49.152;11.004;2023-05-16T03:13:20;10.00;99.90
9730;DHT22;4904;49.152;11.004;2023-05-16T03:15:47;10.00;99.90
9730;DHT22;4904;49.152;11.004;2023-05-16T03:18:14;9.90;99.90
9730;DHT22;4904;49.152;11.004;2023-05-16T03:20:42;9.90;99.90
9730;DHT22;4904;49.152;11.004;2023-05-16T03:23:09;10.00;99.90
9730;DHT22;4904;49.152;11.004;2023-05-16T03:25:36;10.10;99.90
9730;DHT22;4904;49.152;11.004;2023-05-16T03:28:04;10.20;99.90
9730;DHT22;4904;49.152;11.004;2023-05-16T03:30:31;10.30;99.90
9730;DHT22;4904;49.152;11.004;2023-05-16T03:32:58;10.30;99.90
9730;DHT22;4904;49.152;11.004;2023-05-16T03:35:25;10.20;99.90
9730;DHT22;4904;49.152;11.004;2023-05-16T03:37:54;10.20;99.90
9730;DHT22;4904;49.152;11.004;2023-05-16T03:40:21;10.20;99.90
9730;DHT22;4904;49.152;11.004;2023-05-16T03:42:48;10.20;99.90
9730;DHT22;4904;49.152;11.004;2023-05-16T03:45:15;10.10;99.90
9730;DHT22;4904;49.152;11.004;2023-05-16T03:47:42;10.00;99.90
9730;DHT22;4904;49.152;11.004;2023-05-16T03:50:09;9.90;99.90
9730;DHT22;4904;49.152;11.004;2023-05-16T03:52:36;9.80;99.90
9730;DHT22;4904;49.152;11.004;2023-05-16T03:55:05;9.80;99.90
9730;DHT22;4904;49.152;11.004;2023-05-16T03:57:34;9.90;99.90
9730;DHT22;4904;49.152;11.004;2023-05-16T04:00:03;9.90;99.90
9730;DHT22;4904;49.152;11.004;2023-05-16T04:02:32;10.00;99.90
9730;DHT22;4904;49.152;11.004;2023-05-16T04:04:59;10.00;99.90
9730;DHT22;4904;49.152;11.004;2023-05-16T04:07:25;10.00;99.90
9730;DHT22;4904;49.152;11.004;2023-05-16T04:09:53;10.10;99.90
9730;DHT22;4904;49.152;11.004;2023-05-16T04:12:22;10.00;99.90
9730;DHT22;4904;49.152;11.004;2023-05-16T04:14:49;10.10;99.90
9730;DHT22;4904;49.152;11.004;2023-05-16T04:17:16;10.10;99.90
9730;DHT22;4904;49.152;11.004;2023-05-16T04:19:42;10.20;99.90
9730;DHT22;4904;49.152;11.004;2023-05-16T04:22:10;10.20;99.90
9730;DHT22;4904;49.152;11.004;2023-05-16T04:24:36;10.00;99.90
9730;DHT22;4904;49.152;11.004;2023-05-16T04:27:04;9.90;99.90
9730;DHT22;4904;49.152;11.004;2023-05-16T04:29:34;9.80;99.90
9730;DHT22;4904;49.152;11.004;2023-05-16T04:32:01;9.80;99.90
9730;DHT22;4904;49.152;11.004;2023-05-16T04:34:28;9.90;99.90
9730;DHT22;4904;49.152;11.004;2023-05-16T04:36:55;10.00;99.90
9730;DHT22;4904;49.152;11.004;2023-05-16T04:39:22;10.10;99.90
9730;DHT22;4904;49.152;11.004;2023-05-16T04:41:49;10.20;99.90
9730;DHT22;4904;49.152;11.004;2023-05-16T04:44:16;10.20;99.90
9730;DHT22;4904;49.152;11.004;2023-05-16T04:46:44;10.30;99.90
9730;DHT22;4904;49.152;11.004;2023-05-16T04:49:11;10.30;99.90
9730;DHT22;4904;49.152;11.004;2023-05-16T04:51:38;10.40;99.90
9730;DHT22;4904;49.152;11.004;2023-05-16T04:54:05;10.40;99.90
9730;DHT22;4904;49.152;11.004;2023-05-16T04:56:33;10.50;99.90
9730;DHT22;4904;49.152;11.004;2023-05-16T04:59:00;10.50;99.90
9730;DHT22;4904;49.152;11.004;2023-05-16T05:01:27;10.50;99.90
9730;DHT22;4904;49.152;11.004;2023-05-16T05:03:55;10.50;99.90
9730;DHT22;4904;49.152;11.004;2023-05-16T05:06:22;10.50;99.90
9730;DHT22;4904;49.152;11.004;2023-05-16T05:08:49;10.60;99.90
9730;DHT22;4904;49.152;11.004;2023-05-16T05:11:15;10.60;99.90
9730;DHT22;4904;49.152;11.004;2023-05-16T05:13:43;10.50;99.90
9730;DHT22;4904;49.152;11.004;2023-05-16T05:16:10;10.60;99.90
9730;DHT22;4904;49.152;11.004;2023-05-16T05:18:38;10.60;99.90
9730;DHT22;4904;49.152;11.004;2023-05-16T05:21:06;10.40;99.90
9730;DHT22;4904;49.152;11.004;2023-05-16T05:23:33;10.20;99.90
9730;DHT22;4904;49.152;11.004;2023-05-16T05:26:00;10.10;99.90
9730;DHT22;4904;49.152;11.004;2023-05-16T05:28:27;10.10;99.90
9730;DHT22;4904;49.152;11.004;2023-05-16T05:30:54;10.40;99.90
9730;DHT22;4904;49.152;11.004;2023-05-16T05:33:25;10.50;99.90
9730;DHT22;4904;49.152;11.004;2023-05-16T05:35:53;10.50;99.90
9730;DHT22;4904;49.152;11.004;2023-05-16T05:38:22;10.50;99.90
9730;DHT22;4904;49.152;11.004;2023-05-16T05:40:48;10.50;99.90
9730;DHT22;4904;49.152;11.004;2023-05-16T05:43:15;10.30;99.90
9730;DHT22;4904;49.152;11.004;2023-05-16T05:45:43;10.10;99.90
9730;DHT22;4904;49.152;11.004;2023-05-16T05:48:10;10.00;99.90
9730;DHT22;4904;49.152;11.004;2023-05-16T05:50:38;10.10;99.90
9730;DHT22;4904;49.152;11.004;2023-05-16T05:53:05;10.20;99.90
9730;DHT22;4904;49.152;11.004;2023-05-16T05:55:33;10.30;99.90
9730;DHT22;4904;49.152;11.004;2023-05-16T05:58:00;10.30;99.90
9730;DHT22;4904;49.152;11.004;2023-05-16T06:00:27;10.30;99.90
9730;DHT22;4904;49.152;11.004;2023-05-16T06:02:54;10.50;99.90
9730;DHT22;4904;49.152;11.004;2023-05-16T06:05:21;10.60;99.90
9730;DHT22;4904;49.152;11.004;2023-05-16T06:07:48;10.60;99.90
9730;DHT22;4904;49.152;11.004;2023-05-16T06:10:15;10.80;99.90
9730;DHT22;4904;49.152;11.004;2023-05-16T06:12:44;11.00;99.90
9730;DHT22;4904;49.152;11.004;2023-05-16T06:15:11;11.10;99.90
9730;DHT22;4904;49.152;11.004;2023-05-16T06:17:37;11.10;99.90
9730;DHT22;4904;49.152;11.004;2023-05-16T06:20:05;11.20;99.90
9730;DHT22;4904;49.152;11.004;2023-05-16T06:22:32;11.30;99.90
9730;DHT22;4904;49.152;11.004;2023-05-16T06:24:59;11.40;99.90
9730;DHT22;4904;49.152;11.004;2023-05-16T06:27:26;11.60;99.90
9730;DHT22;4904;49.152;11.004;2023-05-16T06:29:54;11.60;99.90
9730;DHT22;4904;49.152;11.004;2023-05-16T06:32:21;11.70;99.90
9730;DHT22;4904;49.152;11.004;2023-05-16T06:34:48;11.80;99.90
9730;DHT22;4904;49.152;11.004;2023-05-16T06:37:15;11.80;99.90
9730;DHT22;4904;49.152;11.004;2023-05-16T06:39:42;11.90;99.90
9730;DHT22;4904;49.152;11.004;2023-05-16T06:42:09;11.90;99.90
9730;DHT22;4904;49.152;11.004;2023-05-16T06:44:37;11.90;99.90
9730;DHT22;4904;49.152;11.004;2023-05-16T06:47:05;12.00;99.90
9730;DHT22;4904;49.152;11.004;2023-05-16T06:49:32;12.00;99.90
9730;DHT22;4904;49.152;11.004;2023-05-16T06:52:00;12.20;99.90
9730;DHT22;4904;49.152;11.004;2023-05-16T06:54:26;12.30;99.90
9730;DHT22;4904;49.152;11.004;2023-05-16T06:56:53;12.40;99.90
9730;DHT22;4904;49.152;11.004;2023-05-16T06:59:20;12.60;99.90
9730;DHT22;4904;49.152;11.004;2023-05-16T07:01:47;12.50;99.90
9730;DHT22;4904;49.152;11.004;2023-05-16T07:04:15;12.70;99.90
9730;DHT22;4904;49.152;11.004;2023-05-16T07:06:42;12.80;99.90
9730;DHT22;4904;49.152;11.004;2023-05-16T07:09:09;12.90;99.90
9730;DHT22;4904;49.152;11.004;2023-05-16T07:11:36;13.00;99.90
9730;DHT22;4904;49.152;11.004;2023-05-16T07:14:03;13.10;99.90
9730;DHT22;4904;49.152;11.004;2023-05-16T07:16:30;13.20;99.90
9730;DHT22;4904;49.152;11.004;2023-05-16T07:18:57;13.30;99.90
9730;DHT22;4904;49.152;11.004;2023-05-16T07:21:25;13.50;99.90
9730;DHT22;4904;49.152;11.004;2023-05-16T07:23:52;13.50;99.90
9730;DHT22;4904;49.152;11.004;2023-05-16T07:26:19;13.50;99.90
9730;DHT22;4904;49.152;11.004;2023-05-16T07:28:48;13.60;99.90
9730;DHT22;4904;49.152;11.004;2023-05-16T07:31:16;13.60;99.90
9730;DHT22;4904;49.152;11.004;2023-05-16T07:33:43;13.70;99.90
9730;DHT22;4904;49.152;11.004;2023-05-16T07:36:11;13.80;99.90
9730;DHT22;4904;49.152;11.004;2023-05-16T07:38:39;13.80;99.90
9730;DHT22;4904;49.152;11.004;2023-05-16T07:41:06;13.90;99.90
9730;DHT22;4904;49.152;11.004;2023-05-16T07:43:33;13.90;99.90
9730;DHT22;4904;49.152;11.004;2023-05-16T07:46:01;14.00;99.90
9730;DHT22;4904;49.152;11.004;2023-05-16T07:48:28;14.20;99.90
9730;DHT22;4904;49.152;11.004;2023-05-16T07:50:55;14.20;99.90
9730;DHT22;4904;49.152;11.004;2023-05-16T07:53:22;14.40;99.90
9730;DHT22;4904;49.152;11.004;2023-05-16T07:55:50;14.50;99.90
9730;DHT22;4904;49.152;11.004;2023-05-16T07:58:17;14.60;99.90
9730;DHT22;4904;49.152;11.004;2023-05-16T08:00:44;14.70;99.90
9730;DHT22;4904;49.152;11.004;2023-05-16T08:03:11;14.60;99.90
9730;DHT22;4904;49.152;11.004;2023-05-16T08:05:38;14.60;99.90
9730;DHT22;4904;49.152;11.004;2023-05-16T08:08:05;14.50;99.90
9730;DHT22;4904;49.152;11.004;2023-05-16T08:10:32;14.50;99.90
9730;DHT22;4904;49.152;11.004;2023-05-16T08:13:00;14.60;99.90
9730;DHT22;4904;49.152;11.004;2023-05-16T08:15:27;14.40;99.90
9730;DHT22;4904;49.152;11.004;2023-05-16T08:17:55;14.50;99.90
9730;DHT22;4904;49.152;11.004;2023-05-16T08:20:22;14.60;99.90
9730;DHT22;4904;49.152;11.004;2023-05-16T08:22:50;14.60;99.90
9730;DHT22;4904;49.152;11.004;2023-05-16T08:25:17;14.60;99.90
9730;DHT22;4904;49.152;11.004;2023-05-16T08:27:44;14.60;99.90
9730;DHT22;4904;49.152;11.004;2023-05-16T08:30:13;14.70;99.90
9730;DHT22;4904;49.152;11.004;2023-05-16T08:32:40;14.70;99.90
9730;DHT22;4904;49.152;11.004;2023-05-16T08:35:07;14.70;99.90
9730;DHT22;4904;49.152;11.004;2023-05-16T08:37:35;14.80;99.90
9730;DHT22;4904;49.152;11.004;2023-05-16T08:40:04;14.80;99.90
9730;DHT22;4904;49.152;11.004;2023-05-16T08:42:33;14.90;99.90
9730;DHT22;4904;49.152;11.004;2023-05-16T08:45:00;14.80;99.90
9730;DHT22;4904;49.152;11.004;2023-05-16T08:47:30;14.90;99.90
9730;DHT22;4904;49.152;11.004;2023-05-16T08:49:59;15.00;99.90
9730;DHT22;4904;49.152;11.004;2023-05-16T08:52:30;15.30;99.90
9730;DHT22;4904;49.152;11.004;2023-05-16T08:55:01;15.40;99.90
9730;DHT22;4904;49.152;11.004;2023-05-16T08:57:30;15.50;99.90
9730;DHT22;4904;49.152;11.004;2023-05-16T08:59:58;15.70;99.90
9730;DHT22;4904;49.152;11.004;2023-05-16T09:02:25;15.70;99.90
9730;DHT22;4904;49.152;11.004;2023-05-16T09:04:53;15.80;99.90
9730;DHT22;4904;49.152;11.004;2023-05-16T09:07:22;15.80;99.90
9730;DHT22;4904;49.152;11.004;2023-05-16T09:09:49;15.80;99.90
9730;DHT22;4904;49.152;11.004;2023-05-16T09:12:16;15.80;99.90
9730;DHT22;4904;49.152;11.004;2023-05-16T09:14:43;15.70;99.90
9730;DHT22;4904;49.152;11.004;2023-05-16T09:17:11;15.60;99.90
9730;DHT22;4904;49.152;11.004;2023-05-16T09:19:41;15.60;99.90
9730;DHT22;4904;49.152;11.004;2023-05-16T09:22:11;15.70;99.90
9730;DHT22;4904;49.152;11.004;2023-05-16T09:24:39;15.90;99.90
9730;DHT22;4904;49.152;11.004;2023-05-16T09:27:07;15.90;99.90
9730;DHT22;4904;49.152;11.004;2023-05-16T09:29:34;15.90;99.90
9730;DHT22;4904;49.152;11.004;2023-05-16T09:32:08;16.00;99.90
9730;DHT22;4904;49.152;11.004;2023-05-16T09:34:37;15.90;99.90
9730;DHT22;4904;49.152;11.004;2023-05-16T09:37:05;15.80;99.90
9730;DHT22;4904;49.152;11.004;2023-05-16T09:39:33;15.60;99.90
9730;DHT22;4904;49.152;11.004;2023-05-16T09:42:01;15.70;99.90
9730;DHT22;4904;49.152;11.004;2023-05-16T09:44:30;15.60;99.90
9730;DHT22;4904;49.152;11.004;2023-05-16T09:46:57;15.80;99.90
9730;DHT22;4904;49.152;11.004;2023-05-16T09:49:25;15.80;99.90
9730;DHT22;4904;49.152;11.004;2023-05-16T09:51:52;15.90;99.90
9730;DHT22;4904;49.152;11.004;2023-05-16T09:54:29;15.90;99.90
9730;DHT22;4904;49.152;11.004;2023-05-16T09:56:58;15.90;99.90
9730;DHT22;4904;49.152;11.004;2023-05-16T09:59:27;16.00;99.90
9730;DHT22;4904;49.152;11.004;2023-05-16T10:01:56;16.00;99.90
9730;DHT22;4904;49.152;11.004;2023-05-16T10:04:24;16.00;99.90
9730;DHT22;4904;49.152;11.004;2023-05-16T10:06:51;16.00;99.90
9730;DHT22;4904;49.152;11.004;2023-05-16T10:09:21;16.10;99.90
9730;DHT22;4904;49.152;11.004;2023-05-16T10:11:48;16.20;99.90
9730;DHT22;4904;49.152;11.004;2023-05-16T10:14:18;16.40;99.90
9730;DHT22;4904;49.152;11.004;2023-05-16T10:16:47;16.40;99.90
9730;DHT22;4904;49.152;11.004;2023-05-16T10:19:16;16.30;99.90
9730;DHT22;4904;49.152;11.004;2023-05-16T10:21:49;16.20;99.90
9730;DHT22;4904;49.152;11.004;2023-05-16T10:24:21;16.00;99.90
9730;DHT22;4904;49.152;11.004;2023-05-16T10:26:50;15.90;99.90
9730;DHT22;4904;49.152;11.004;2023-05-16T10:29:19;15.90;99.90
9730;DHT22;4904;49.152;11.004;2023-05-16T10:31:47;15.90;99.90
9730;DHT22;4904;49.152;11.004;2023-05-16T10:34:15;15.90;99.90
9730;DHT22;4904;49.152;11.004;2023-05-16T10:36:42;15.80;99.90
9730;DHT22;4904;49.152;11.004;2023-05-16T10:39:10;15.80;99.90
9730;DHT22;4904;49.152;11.004;2023-05-16T10:41:38;15.50;99.90
9730;DHT22;4904;49.152;11.004;2023-05-16T10:44:12;15.60;99.90
9730;DHT22;4904;49.152;11.004;2023-05-16T10:46:41;15.50;99.90
9730;DHT22;4904;49.152;11.004;2023-05-16T10:49:24;15.80;99.90
9730;DHT22;4904;49.152;11.004;2023-05-16T10:52:12;16.00;99.90
9730;DHT22;4904;49.152;11.004;2023-05-16T10:54:43;15.90;99.90
9730;DHT22;4904;49.152;11.004;2023-05-16T10:57:15;15.90;99.90
9730;DHT22;4904;49.152;11.004;2023-05-16T10:59:43;16.00;99.90
9730;DHT22;4904;49.152;11.004;2023-05-16T11:02:30;16.20;99.90
9730;DHT22;4904;49.152;11.004;2023-05-16T11:04:59;16.30;99.90
9730;DHT22;4904;49.152;11.004;2023-05-16T11:07:31;16.00;99.90
9730;DHT22;4904;49.152;11.004;2023-05-16T11:10:04;15.80;99.90
9730;DHT22;4904;49.152;11.004;2023-05-16T11:12:42;16.00;99.90
9730;DHT22;4904;49.152;11.004;2023-05-16T11:15:20;16.10;99.90
9730;DHT22;4904;49.152;11.004;2023-05-16T11:17:49;16.00;99.90
9730;DHT22;4904;49.152;11.004;2023-05-16T11:20:26;15.90;99.90
9730;DHT22;4904;49.152;11.004;2023-05-16T11:23:17;15.90;99.90
9730;DHT22;4904;49.152;11.004;2023-05-16T11:25:46;16.20;99.90
9730;DHT22;4904;49.152;11.004;2023-05-16T11:28:15;16.30;99.90
9730;DHT22;4904;49.152;11.004;2023-05-16T11:30:43;16.20;99.90
9730;DHT22;4904;49.152;11.004;2023-05-16T11:33:12;16.20;99.90
9730;DHT22;4904;49.152;11.004;2023-05-16T11:35:39;16.20;99.90
9730;DHT22;4904;49.152;11.004;2023-05-16T11:38:11;16.20;99.90
9730;DHT22;4904;49.152;11.004;2023-05-16T11:40:41;16.20;99.90
9730;DHT22;4904;49.152;11.004;2023-05-16T11:43:09;16.10;99.90
9730;DHT22;4904;49.152;11.004;2023-05-16T11:45:36;16.30;99.90
9730;DHT22;4904;49.152;11.004;2023-05-16T11:48:03;16.40;99.90
9730;DHT22;4904;49.152;11.004;2023-05-16T11:50:33;16.00;99.90
9730;DHT22;4904;49.152;11.004;2023-05-16T11:53:00;16.00;99.90
9730;DHT22;4904;49.152;11.004;2023-05-16T11:55:28;16.00;99.90
9730;DHT22;4904;49.152;11.004;2023-05-16T11:57:57;16.20;99.90
9730;DHT22;4904;49.152;11.004;2023-05-16T12:00:25;16.30;99.90
9730;DHT22;4904;49.152;11.004;2023-05-16T12:02:54;16.50;99.90
9730;DHT22;4904;49.152;11.004;2023-05-16T12:05:21;16.60;99.90
9730;DHT22;4904;49.152;11.004;2023-05-16T12:07:51;16.40;99.90
9730;DHT22;4904;49.152;11.004;2023-05-16T12:10:19;16.20;99.90
9730;DHT22;4904;49.152;11.004;2023-05-16T12:12:49;16.30;99.90
9730;DHT22;4904;49.152;11.004;2023-05-16T12:15:17;16.40;99.90
9730;DHT22;4904;49.152;11.004;2023-05-16T12:17:46;16.40;99.90
9730;DHT22;4904;49.152;11.004;2023-05-16T12:20:14;15.90;99.90
9730;DHT22;4904;49.152;11.004;2023-05-16T12:22:42;15.90;99.90
9730;DHT22;4904;49.152;11.004;2023-05-16T12:25:24;15.90;99.90
9730;DHT22;4904;49.152;11.004;2023-05-16T12:27:52;16.00;99.90
9730;DHT22;4904;49.152;11.004;2023-05-16T12:30:21;16.00;99.90
9730;DHT22;4904;49.152;11.004;2023-05-16T12:32:52;16.00;99.90
9730;DHT22;4904;49.152;11.004;2023-05-16T12:35:21;15.90;99.90
9730;DHT22;4904;49.152;11.004;2023-05-16T12:37:48;15.90;99.90
9730;DHT22;4904;49.152;11.004;2023-05-16T12:40:16;15.90;99.90
9730;DHT22;4904;49.152;11.004;2023-05-16T12:42:48;16.00;99.90
9730;DHT22;4904;49.152;11.004;2023-05-16T12:45:16;16.00;99.90
9730;DHT22;4904;49.152;11.004;2023-05-16T12:47:43;15.90;99.90
9730;DHT22;4904;49.152;11.004;2023-05-16T12:50:11;15.90;99.90
9730;DHT22;4904;49.152;11.004;2023-05-16T12:52:46;15.80;99.90
9730;DHT22;4904;49.152;11.004;2023-05-16T12:55:15;15.60;99.90
9730;DHT22;4904;49.152;11.004;2023-05-16T12:57:43;15.60;99.90
9730;DHT22;4904;49.152;11.004;2023-05-16T13:00:16;15.60;99.90
9730;DHT22;4904;49.152;11.004;2023-05-16T13:02:45;15.50;99.90
9730;DHT22;4904;49.152;11.004;2023-05-16T13:05:13;15.40;99.90
9730;DHT22;4904;49.152;11.004;2023-05-16T13:07:40;15.40;99.90
9730;DHT22;4904;49.152;11.004;2023-05-16T13:10:08;15.30;99.90
9730;DHT22;4904;49.152;11.004;2023-05-16T13:12:35;15.40;99.90
9730;DHT22;4904;49.152;11.004;2023-05-16T13:15:04;15.50;99.90
9730;DHT22;4904;49.152;11.004;2023-05-16T13:17:33;15.40;99.90
9730;DHT22;4904;49.152;11.004;2023-05-16T13:20:00;15.40;99.90
9730;DHT22;4904;49.152;11.004;2023-05-16T13:22:29;15.40;99.90
9730;DHT22;4904;49.152;11.004;2023-05-16T13:24:56;15.40;99.90
9730;DHT22;4904;49.152;11.004;2023-05-16T13:27:23;15.40;99.90
9730;DHT22;4904;49.152;11.004;2023-05-16T13:29:50;15.40;99.90
9730;DHT22;4904;49.152;11.004;2023-05-16T13:32:17;15.50;99.90
9730;DHT22;4904;49.152;11.004;2023-05-16T13:34:45;15.50;99.90
9730;DHT22;4904;49.152;11.004;2023-05-16T13:37:12;15.50;99.90
9730;DHT22;4904;49.152;11.004;2023-05-16T13:39:39;15.50;99.90
9730;DHT22;4904;49.152;11.004;2023-05-16T13:42:06;15.60;99.90
9730;DHT22;4904;49.152;11.004;2023-05-16T13:44:33;15.70;99.90
9730;DHT22;4904;49.152;11.004;2023-05-16T13:47:01;15.70;99.90
9730;DHT22;4904;49.152;11.004;2023-05-16T13:49:28;15.60;99.90
9730;DHT22;4904;49.152;11.004;2023-05-16T13:51:56;15.50;99.90
9730;DHT22;4904;49.152;11.004;2023-05-16T13:54:23;15.60;99.90
9730;DHT22;4904;49.152;11.004;2023-05-16T13:56:51;15.70;99.90
9730;DHT22;4904;49.152;11.004;2023-05-16T13:59:17;15.60;99.90
9730;DHT22;4904;49.152;11.004;2023-05-16T14:01:44;15.60;99.90
9730;DHT22;4904;49.152;11.004;2023-05-16T14:04:11;15.70;99.90
9730;DHT22;4904;49.152;11.004;2023-05-16T14:06:38;15.60;99.90
9730;DHT22;4904;49.152;11.004;2023-05-16T14:09:06;15.50;99.90
9730;DHT22;4904;49.152;11.004;2023-05-16T14:11:34;15.20;99.90
9730;DHT22;4904;49.152;11.004;2023-05-16T14:14:00;15.30;99.90
9730;DHT22;4904;49.152;11.004;2023-05-16T14:16:27;15.30;99.90
9730;DHT22;4904;49.152;11.004;2023-05-16T14:18:55;15.30;99.90
9730;DHT22;4904;49.152;11.004;2023-05-16T14:21:22;15.20;99.90
9730;DHT22;4904;49.152;11.004;2023-05-16T14:23:49;15.20;99.90
9730;DHT22;4904;49.152;11.004;2023-05-16T14:26:17;15.00;99.90
9730;DHT22;4904;49.152;11.004;2023-05-16T14:28:47;15.00;99.90
9730;DHT22;4904;49.152;11.004;2023-05-16T14:31:13;15.00;99.90
9730;DHT22;4904;49.152;11.004;2023-05-16T14:33:41;14.90;99.90
9730;DHT22;4904;49.152;11.004;2023-05-16T14:36:08;15.00;99.90
9730;DHT22;4904;49.152;11.004;2023-05-16T14:38:35;15.00;99.90
9730;DHT22;4904;49.152;11.004;2023-05-16T14:41:02;15.00;99.90
9730;DHT22;4904;49.152;11.004;2023-05-16T14:43:30;14.90;99.90
9730;DHT22;4904;49.152;11.004;2023-05-16T14:45:57;14.80;99.90
9730;DHT22;4904;49.152;11.004;2023-05-16T14:48:24;14.70;99.90
9730;DHT22;4904;49.152;11.004;2023-05-16T14:50:51;14.60;99.90
9730;DHT22;4904;49.152;11.004;2023-05-16T14:53:18;14.50;99.90
9730;DHT22;4904;49.152;11.004;2023-05-16T14:55:46;14.50;99.90
9730;DHT22;4904;49.152;11.004;2023-05-16T14:58:13;14.60;99.90
9730;DHT22;4904;49.152;11.004;2023-05-16T15:00:41;14.60;99.90
9730;DHT22;4904;49.152;11.004;2023-05-16T15:03:08;14.50;99.90
9730;DHT22;4904;49.152;11.004;2023-05-16T15:05:35;14.50;99.90
9730;DHT22;4904;49.152;11.004;2023-05-16T15:08:02;14.70;99.90
9730;DHT22;4904;49.152;11.004;2023-05-16T15:10:29;14.50;99.90
9730;DHT22;4904;49.152;11.004;2023-05-16T15:12:55;14.40;99.90
9730;DHT22;4904;49.152;11.004;2023-05-16T15:15:22;14.40;99.90
9730;DHT22;4904;49.152;11.004;2023-05-16T15:17:50;14.40;99.90
9730;DHT22;4904;49.152;11.004;2023-05-16T15:20:18;14.40;99.90
9730;DHT22;4904;49.152;11.004;2023-05-16T15:22:45;14.50;99.90
9730;DHT22;4904;49.152;11.004;2023-05-16T15:25:11;14.50;99.90
9730;DHT22;4904;49.152;11.004;2023-05-16T15:27:38;14.60;99.90
9730;DHT22;4904;49.152;11.004;2023-05-16T15:30:06;14.60;99.90
9730;DHT22;4904;49.152;11.004;2023-05-16T15:32:33;14.70;99.90
9730;DHT22;4904;49.152;11.004;2023-05-16T15:35:03;14.70;99.90
9730;DHT22;4904;49.152;11.004;2023-05-16T15:37:30;14.60;99.90
9730;DHT22;4904;49.152;11.004;2023-05-16T15:39:56;14.70;99.90
9730;DHT22;4904;49.152;11.004;2023-05-16T15:42:23;14.70;99.90
9730;DHT22;4904;49.152;11.004;2023-05-16T15:44:50;14.80;99.90
9730;DHT22;4904;49.152;11.004;2023-05-16T15:47:17;14.80;99.90
9730;DHT22;4904;49.152;11.004;2023-05-16T15:49:44;15.00;99.90
9730;DHT22;4904;49.152;11.004;2023-05-16T15:52:12;15.20;99.90
9730;DHT22;4904;49.152;11.004;2023-05-16T15:54:39;15.10;99.90